Capitol Logistics 72




KBWI
Baltimore/Washington International Airport
Baltimore, Maryland
PANC
Ted Stevens Anchorage International Airport
Anchorage, Alaska

Route Details

Aircraft Information
Group: Boeing Long Haul
Types: B744,B763
Route Data
Demand: L
Distance: 2924nm
Duration: 6h 00m
Recm'd Route: TERPZ7 MCRAY J518 DJB J34 BAE J89 YWG J596 YQD V325 YVC L763 YMM J513 YYE V326 YXY NCA13 JAGIT NCA13 TMSON WITTI4
Origin Wx: KBWI 252254Z 32013G20KT 10SM FEW050 SCT075 SCT250 02/M07 A3010 RMK AO2 SLP194 T00221067
Dest. Wx: PANC 252346Z 00000KT 10SM SCT020 BKN036 M01/M03 A3008 RMK AO2 SNE2258 P0000 T10061033
Notes:

Financial History
Total Freight: 85,602lbs
Average Load: 42,801lbs/flt
Fuel Used: 145,720lbs
Avg. Fuel Used: 72,860lbs/flt
Fuel Expense: $106,029
Avg. Fuel Expense: $53,014
Avg. Fuel Cost: $0.77/lbs
Total Gross Income: $232,159
Pilot Pay: $468
Total Expenses: $28,359
Total Revenue: $94,561
Average Revenue: $116,079.44